Time;durP1;ratioP1;P1;durP2;ratioP2;P2;SDS_P1;SDS_P2;PMS_P1;PMS_P2;Temp;Humidity;BMP_temperature;BMP_pressure;BME280_temperature;BME280_humidity;BME280_pressure;Samples;Min_cycle;Max_cycle;Signal;HPM_P1;HPM_P2
2022/04/08 00:01:57;;;;;;;26.80;15.80;;;;;;;6.24;75.45;98387.53;4923543;29;20051;-86
2022/04/08 00:04:25;;;;;;;25.13;15.52;;;;;;;6.36;75.29;98383.16;4941185;29;20150;-86
2022/04/08 00:06:52;;;;;;;28.92;17.13;;;;;;;6.34;75.59;98403.03;4940887;29;20473;-85
2022/04/08 00:09:20;;;;;;;27.63;16.38;;;;;;;6.15;75.17;98362.47;4939747;29;20063;-82
2022/04/08 00:11:47;;;;;;;24.60;16.15;;;;;;;6.38;75.13;98392.69;4922824;29;20055;-86
2022/04/08 00:14:14;;;;;;;29.05;17.08;;;;;;;6.32;75.41;98388.38;4922178;29;20054;-85
2022/04/08 00:16:42;;;;;;;27.67;16.17;;;;;;;6.09;75.51;98341.78;4936935;29;20399;-86
2022/04/08 00:19:09;;;;;;;25.80;15.10;;;;;;;6.20;75.46;98367.69;4938454;29;20060;-84
2022/04/08 00:21:36;;;;;;;23.17;15.23;;;;;;;6.16;75.21;98361.63;4938251;29;20427;-86
2022/04/08 00:24:03;;;;;;;26.33;15.50;;;;;;;6.31;75.17;98387.50;4924058;29;20055;-84
2022/04/08 00:26:30;;;;;;;25.75;15.35;;;;;;;6.08;74.61;98342.63;4942873;29;20059;-86
2022/04/08 00:28:57;;;;;;;26.25;15.95;;;;;;;6.15;75.05;98365.06;4934432;29;20113;-86
2022/04/08 00:31:25;;;;;;;23.85;15.07;;;;;;;6.07;74.93;98343.50;4938153;29;20059;-85
2022/04/08 00:33:52;;;;;;;24.90;15.63;;;;;;;6.26;74.91;98383.19;4938539;29;20079;-85
2022/04/08 00:36:19;;;;;;;25.10;13.82;;;;;;;6.25;74.81;98371.97;4938782;29;20603;-84
2022/04/08 00:38:46;;;;;;;25.08;14.23;;;;;;;6.21;74.68;98377.16;4924208;29;20067;-84
2022/04/08 00:41:14;;;;;;;24.67;14.65;;;;;;;6.24;74.40;98392.72;4946491;29;20410;-86
2022/04/08 00:43:40;;;;;;;24.90;14.45;;;;;;;5.95;74.15;98340.06;4941647;29;20058;-85
2022/04/08 00:46:09;;;;;;;22.92;14.50;;;;;;;6.18;74.29;98372.88;4940419;29;20056;-85
2022/04/08 00:48:39;;;;;;;23.25;14.40;;;;;;;6.14;74.40;98377.19;4922099;29;20461;-83
2022/04/08 00:51:07;;;;;;;26.33;15.00;;;;;;;6.03;74.03;98352.16;4922273;29;20055;-83
2022/04/08 00:53:38;;;;;;;23.63;14.27;;;;;;;5.96;73.72;98338.34;4938920;29;20091;-84
2022/04/08 00:56:06;;;;;;;23.98;15.27;;;;;;;6.19;73.66;98382.34;4939286;29;20051;-84
2022/04/08 00:58:37;;;;;;;21.67;14.30;;;;;;;6.05;73.81;98363.41;4944303;29;20044;-84
2022/04/08 01:01:04;;;;;;;23.50;14.80;;;;;;;6.06;73.75;98375.47;4947848;29;20064;-84
2022/04/08 01:03:31;;;;;;;21.33;13.65;;;;;;;6.15;73.77;98398.78;4932163;29;20078;-81
2022/04/08 01:05:58;;;;;;;22.40;14.45;;;;;;;5.84;74.04;98335.75;4919508;29;20059;-83
2022/04/08 01:08:25;;;;;;;24.88;14.75;;;;;;;6.10;73.27;98395.34;4951908;29;20055;-85
2022/04/08 01:10:53;;;;;;;23.45;14.18;;;;;;;6.08;73.73;98400.53;4950956;29;20079;-85
2022/04/08 01:13:21;;;;;;;21.17;13.98;;;;;;;5.96;73.46;98377.25;4952113;29;20438;-83
2022/04/08 01:15:48;;;;;;;22.10;13.95;;;;;;;6.05;73.82;98382.41;4938744;29;20063;-86
2022/04/08 01:18:16;;;;;;;22.80;13.63;;;;;;;5.94;73.38;98372.06;4934514;29;20083;-82
2022/04/08 01:20:43;;;;;;;21.98;14.30;;;;;;;6.02;73.65;98384.97;4950172;29;20055;-83
2022/04/08 01:23:10;;;;;;;23.95;14.55;;;;;;;5.98;73.67;98382.41;4950542;29;20063;-82
2022/04/08 01:25:37;;;;;;;20.73;13.27;;;;;;;5.91;73.34;98377.19;4931044;29;20052;-82
2022/04/08 01:28:04;;;;;;;22.25;13.40;;;;;;;5.95;73.67;98368.56;4943554;29;20059;-85
2022/04/08 01:30:31;;;;;;;21.13;13.40;;;;;;;6.01;73.11;98379.81;4922825;29;20052;-84
2022/04/08 01:32:58;;;;;;;23.35;14.00;;;;;;;6.01;72.89;98385.00;4939856;29;20056;-85
2022/04/08 01:35:25;;;;;;;21.55;13.75;;;;;;;5.58;72.79;98307.31;4939733;29;20055;-85
2022/04/08 01:37:52;;;;;;;20.50;13.52;;;;;;;6.01;73.13;98377.22;4921277;29;20154;-83
2022/04/08 01:40:19;;;;;;;21.95;13.60;;;;;;;5.80;72.88;98350.44;4923114;29;20059;-85
2022/04/08 01:42:46;;;;;;;19.95;13.10;;;;;;;6.03;72.79;98391.06;4922331;29;20052;-85
2022/04/08 01:45:14;;;;;;;19.15;12.82;;;;;;;5.66;72.79;98318.53;4923047;29;20059;-84
2022/04/08 01:47:41;;;;;;;21.85;13.65;;;;;;;6.00;72.80;98391.91;4940507;29;20129;-85
2022/04/08 01:50:08;;;;;;;23.30;12.88;;;;;;;5.99;72.19;98397.09;4908280;29;20060;-84
2022/04/08 01:52:35;;;;;;;22.42;13.35;;;;;;;5.98;72.11;98383.28;4922983;29;20422;-85
2022/04/08 01:55:05;;;;;;;17.95;12.25;;;;;;;5.79;72.06;98359.09;4945136;29;20036;-86
2022/04/08 01:57:33;;;;;;;19.60;12.50;;;;;;;5.99;71.93;98394.50;4945175;29;20059;-84
2022/04/08 02:00:02;;;;;;;19.15;12.25;;;;;;;5.67;71.79;98338.38;4953560;29;20062;-84
2022/04/08 02:02:39;;;;;;;17.63;12.00;;;;;;;5.90;72.29;98367.69;4940106;29;20078;-86
2022/04/08 02:05:07;;;;;;;18.17;11.85;;;;;;;5.98;71.42;98382.41;4939545;29;20510;-84
2022/04/08 02:07:34;;;;;;;19.33;11.68;;;;;;;5.82;71.69;98360.81;4938100;29;20063;-85
2022/04/08 02:10:01;;;;;;;18.55;11.95;;;;;;;5.92;71.54;98373.75;4937943;29;20509;-85
2022/04/08 02:12:29;;;;;;;24.08;12.70;;;;;;;6.01;71.35;98385.84;4937628;29;20532;-85
2022/04/08 02:14:56;;;;;;;18.30;11.18;;;;;;;5.90;71.15;98375.47;4937527;29;20065;-84
2022/04/08 02:17:28;;;;;;;18.85;11.82;;;;;;;6.00;71.16;98381.56;4936686;29;20086;-85
2022/04/08 02:19:56;;;;;;;20.48;12.05;;;;;;;5.99;71.15;98395.38;4936821;29;20059;-85
2022/04/08 02:22:24;;;;;;;22.70;12.57;;;;;;;5.79;71.39;98346.13;4920821;29;20058;-88
2022/04/08 02:24:53;;;;;;;21.63;12.02;;;;;;;5.91;71.46;98365.97;4935456;29;20122;-87
2022/04/08 02:27:23;;;;;;;20.83;11.43;;;;;;;5.69;70.89;98328.88;4905012;29;20291;-86
2022/04/08 02:29:50;;;;;;;19.13;11.73;;;;;;;5.63;70.48;98321.09;4937810;29;20400;-84
2022/04/08 02:32:17;;;;;;;16.90;10.32;;;;;;;5.36;70.41;98273.66;4937554;29;20110;-85
2022/04/08 02:34:45;;;;;;;16.80;11.05;;;;;;;6.03;70.33;98378.94;4938126;29;20056;-87
2022/04/08 02:37:12;;;;;;;21.75;11.57;;;;;;;6.02;70.66;98386.72;4938047;29;20071;-84
2022/04/08 02:39:39;;;;;;;19.02;11.10;;;;;;;5.68;70.42;98320.25;4937807;29;20055;-85
2022/04/08 02:42:06;;;;;;;16.85;10.80;;;;;;;5.75;70.33;98344.41;4921817;29;20146;-85
2022/04/08 02:44:34;;;;;;;17.17;10.88;;;;;;;5.90;69.90;98372.03;4938884;29;20119;-85
2022/04/08 02:47:01;;;;;;;19.23;11.13;;;;;;;5.81;70.11;98340.94;4922200;29;20159;-84
2022/04/08 02:49:28;;;;;;;17.35;10.60;;;;;;;6.10;69.36;98391.00;4929915;29;20080;-83
2022/04/08 02:51:55;;;;;;;17.83;10.90;;;;;;;5.83;69.56;98331.41;4938459;29;20074;-83
2022/04/08 02:54:22;;;;;;;19.27;11.10;;;;;;;6.11;69.74;98377.19;4949790;29;20055;-87
2022/04/08 02:56:49;;;;;;;17.33;10.38;;;;;;;5.92;69.22;98358.19;4956093;29;20066;-88
2022/04/08 02:59:16;;;;;;;17.05;10.35;;;;;;;6.25;68.95;98407.41;4957324;28;20051;-87
2022/04/08 03:01:43;;;;;;;19.00;10.50;;;;;;;6.27;68.99;98400.50;4959297;29;20469;-85
2022/04/08 03:04:10;;;;;;;17.52;10.18;;;;;;;5.98;68.67;98339.22;4959272;29;20070;-85
2022/04/08 03:06:37;;;;;;;15.77;9.68;;;;;;;6.10;68.17;98362.50;4942787;29;20150;-86
2022/04/08 03:09:05;;;;;;;17.00;10.30;;;;;;;6.36;67.72;98390.94;4959538;29;20048;-86
2022/04/08 03:11:33;;;;;;;19.27;10.80;;;;;;;6.35;67.80;98384.03;4959942;29;20106;-85
2022/04/08 03:14:02;;;;;;;17.50;9.98;;;;;;;6.43;67.74;98391.81;4960390;29;20051;-85
2022/04/08 03:16:29;;;;;;;14.77;9.88;;;;;;;6.59;67.27;98394.34;4959756;29;20063;-85
2022/04/08 03:18:57;;;;;;;16.10;9.88;;;;;;;6.64;66.99;98402.97;4960960;29;20058;-88
2022/04/08 03:21:25;;;;;;;17.33;10.25;;;;;;;6.60;66.20;98396.91;4960661;29;20533;-86
2022/04/08 03:23:52;;;;;;;15.93;9.90;;;;;;;6.73;66.37;98409.00;4962446;29;20516;-86
2022/04/08 03:26:19;;;;;;;15.57;9.65;;;;;;;6.65;65.82;98397.78;4961014;29;20113;-87
2022/04/08 03:28:46;;;;;;;16.90;9.75;;;;;;;6.73;65.60;98380.44;4960160;29;20057;-84
2022/04/08 03:31:13;;;;;;;18.20;9.98;;;;;;;7.00;65.43;98412.31;4942615;29;20055;-86
2022/04/08 03:33:41;;;;;;;14.18;8.90;;;;;;;7.08;64.68;98409.69;4959969;29;20062;-87
2022/04/08 03:36:08;;;;;;;14.07;9.18;;;;;;;7.10;64.45;98406.19;4959349;29;20051;-85
2022/04/08 03:38:35;;;;;;;13.27;8.57;;;;;;;7.27;64.26;98426.88;4941642;29;20063;-86
2022/04/08 03:41:02;;;;;;;14.05;8.60;;;;;;;7.26;63.95;98403.50;4959266;29;20086;-87
2022/04/08 03:43:29;;;;;;;14.95;8.68;;;;;;;7.53;63.36;98423.25;4959256;29;20114;-85
2022/04/08 03:45:56;;;;;;;11.93;7.75;;;;;;;7.52;62.84;98419.75;4959581;29;20047;-85
2022/04/08 03:48:23;;;;;;;14.85;8.25;;;;;;;7.72;62.68;98426.53;4960072;29;20063;-86
2022/04/08 03:50:51;;;;;;;11.93;8.07;;;;;;;7.70;62.22;98395.38;4958312;29;20051;-85
2022/04/08 03:53:18;;;;;;;12.25;7.50;;;;;;;7.96;61.76;98415.09;4942623;29;20054;-85
2022/04/08 03:55:46;;;;;;;18.10;7.72;;;;;;;8.20;60.75;98408.78;4949200;29;20055;-84
2022/04/08 03:58:13;;;;;;;16.25;7.55;;;;;;;8.42;60.64;98421.59;4953836;29;20055;-85
2022/04/08 04:00:40;;;;;;;12.82;7.30;;;;;;;8.59;59.75;98404.03;4960558;29;20066;-85
2022/04/08 04:03:07;;;;;;;11.77;7.30;;;;;;;8.84;58.80;98388.09;4960941;29;20067;-82
2022/04/08 04:05:40;;;;;;;13.00;7.35;;;;;;;9.21;57.95;98409.31;4949166;29;20055;-85
2022/04/08 04:08:09;;;;;;;14.38;7.38;;;;;;;9.33;57.20;98409.13;4961531;29;20051;-84
2022/04/08 04:10:36;;;;;;;13.05;7.65;;;;;;;9.15;57.66;98376.38;4959435;28;20059;-86
2022/04/08 04:13:03;;;;;;;12.50;7.85;;;;;;;9.56;57.16;98414.00;4959178;29;20066;-90
2022/04/08 04:15:30;;;;;;;13.95;7.47;;;;;;;9.81;56.41;98411.84;4941647;29;20130;-86
2022/04/08 04:17:57;;;;;;;10.05;7.00;;;;;;;9.32;55.13;98316.22;4957985;29;20153;-83
2022/04/08 04:20:24;;;;;;;11.40;6.90;;;;;;;10.03;55.07;98407.13;4958730;29;20575;-86
2022/04/08 04:22:53;;;;;;;10.73;6.97;;;;;;;10.21;54.79;98415.50;4958628;29;20047;-87
2022/04/08 04:25:20;;;;;;;13.87;6.73;;;;;;;10.36;54.08;98420.47;4960062;29;20595;-84
2022/04/08 04:27:48;;;;;;;12.00;7.07;;;;;;;10.51;53.42;98402.81;4953936;29;20063;-84
2022/04/08 04:30:15;;;;;;;12.20;7.38;;;;;;;10.30;53.20;98349.25;4980934;28;20066;-82
2022/04/08 04:32:42;;;;;;;11.65;7.00;;;;;;;10.88;52.93;98426.41;4968934;29;20063;-82
2022/04/08 04:35:09;;;;;;;12.90;6.90;;;;;;;10.94;52.24;98420.22;4960460;29;20078;-84
2022/04/08 04:37:43;;;;;;;14.27;7.18;;;;;;;10.75;52.26;98362.28;4937455;29;20494;-88
2022/04/08 04:40:11;;;;;;;10.32;7.10;;;;;;;11.13;51.88;98405.84;4941472;29;20056;-84
2022/04/08 04:42:38;;;;;;;11.77;7.13;;;;;;;11.21;51.67;98418.78;4958841;29;20516;-84
2022/04/08 04:45:05;;;;;;;13.88;7.50;;;;;;;11.12;51.88;98409.38;4959492;29;20066;-83
2022/04/08 04:47:33;;;;;;;11.43;7.13;;;;;;;11.23;51.41;98415.22;4961983;29;20051;-86
2022/04/08 04:50:00;;;;;;;12.05;7.10;;;;;;;11.09;50.88;98354.56;4924437;29;20059;-83
2022/04/08 04:52:28;;;;;;;11.80;6.72;;;;;;;11.53;50.58;98404.97;4946879;29;20047;-84
2022/04/08 04:54:56;;;;;;;9.48;6.80;;;;;;;11.50;50.54;98396.31;4954739;29;20074;-82
2022/04/08 04:57:26;;;;;;;12.57;6.72;;;;;;;11.47;50.44;98405.09;4957099;29;20433;-83
2022/04/08 04:59:53;;;;;;;12.07;6.82;;;;;;;11.32;50.61;98395.84;4946475;29;20051;-87
2022/04/08 05:02:21;;;;;;;12.13;6.78;;;;;;;11.31;50.50;98409.81;4915902;29;20051;-84
2022/04/08 05:04:48;;;;;;;12.13;7.00;;;;;;;11.36;50.75;98407.13;4946327;29;20040;-84
2022/04/08 05:07:15;;;;;;;11.05;6.57;;;;;;;11.35;50.92;98421.06;4944249;29;20482;-85
2022/04/08 05:09:43;;;;;;;11.10;6.63;;;;;;;11.23;51.11;98428.28;4907249;29;20067;-89
2022/04/08 05:12:10;;;;;;;11.95;7.07;;;;;;;11.02;51.38;98411.31;4939737;29;20066;-89
2022/04/08 05:14:37;;;;;;;10.10;6.65;;;;;;;11.10;51.13;98410.28;4907587;29;20055;-85
2022/04/08 05:17:05;;;;;;;13.75;7.30;;;;;;;11.08;51.11;98397.28;4940619;29;20063;-83
2022/04/08 05:19:32;;;;;;;11.32;6.78;;;;;;;11.07;51.19;98396.38;4943810;29;20142;-83
2022/04/08 05:21:59;;;;;;;10.18;7.13;;;;;;;11.06;51.08;98394.69;4957590;28;20146;-86
2022/04/08 05:24:26;;;;;;;10.98;7.15;;;;;;;11.11;51.16;98393.72;4957816;29;20118;-86
2022/04/08 05:26:52;;;;;;;12.90;6.93;;;;;;;11.27;51.00;98409.03;4955683;29;20547;-83
2022/04/08 05:29:20;;;;;;;12.93;6.90;;;;;;;11.37;50.62;98390.53;4956809;29;20118;-85
2022/04/08 05:31:47;;;;;;;9.38;6.72;;;;;;;11.72;50.01;98404.50;4956624;29;20059;-84
2022/04/08 05:34:15;;;;;;;13.23;7.18;;;;;;;11.88;49.35;98406.75;4956152;29;20406;-82
2022/04/08 05:36:42;;;;;;;11.88;6.53;;;;;;;11.70;49.06;98352.22;4956197;29;20065;-85
2022/04/08 05:39:09;;;;;;;10.93;6.43;;;;;;;11.95;48.92;98388.28;4956068;29;20059;-83
2022/04/08 05:41:36;;;;;;;11.93;6.22;;;;;;;11.94;48.71;98378.69;4953332;29;20517;-84
2022/04/08 05:44:04;;;;;;;11.82;6.65;;;;;;;11.99;48.60;98342.81;4928587;29;20074;-83
2022/04/08 05:46:31;;;;;;;15.15;7.28;;;;;;;12.06;48.24;98374.00;4937478;29;20518;-84
2022/04/08 05:49:03;;;;;;;9.80;6.15;;;;;;;12.35;48.31;98395.09;4920185;29;20063;-85
2022/04/08 05:51:30;;;;;;;12.25;6.82;;;;;;;12.26;47.85;98360.38;4937546;29;20146;-84
2022/04/08 05:54:07;;;;;;;11.90;6.65;;;;;;;12.62;47.55;98401.31;4936204;29;20067;-88
2022/04/08 05:56:34;;;;;;;11.05;6.80;;;;;;;12.57;47.58;98396.19;4937373;29;20055;-84
2022/04/08 05:59:01;;;;;;;13.48;7.25;;;;;;;12.49;47.50;98370.22;4904809;29;20129;-84
2022/04/08 06:01:28;;;;;;;10.52;6.65;;;;;;;12.57;47.43;98403.19;4921589;29;20081;-85
2022/04/08 06:03:56;;;;;;;11.90;6.75;;;;;;;12.64;47.56;98392.50;4938274;29;20055;-84
2022/04/08 06:06:23;;;;;;;9.95;6.95;;;;;;;12.78;47.27;98407.84;4904665;29;20059;-84
2022/04/08 06:08:51;;;;;;;9.90;6.65;;;;;;;12.82;46.99;98405.97;4936808;29;20060;-85
2022/04/08 06:11:18;;;;;;;12.13;6.65;;;;;;;12.72;46.67;98378.34;4920062;29;20154;-86
2022/04/08 06:13:45;;;;;;;9.30;6.43;;;;;;;12.82;46.62;98385.88;4923457;29;20047;-84
2022/04/08 06:16:12;;;;;;;11.73;5.90;;;;;;;12.80;46.06;98365.84;4958607;29;20067;-84
2022/04/08 06:18:40;;;;;;;12.15;6.78;;;;;;;13.16;45.84;98408.44;4938673;29;20061;-86
2022/04/08 06:21:07;;;;;;;11.18;7.60;;;;;;;13.23;45.55;98414.41;4955798;29;20117;-85
2022/04/08 06:23:36;;;;;;;13.63;6.53;;;;;;;13.04;45.69;98380.84;4956305;29;20054;-85
2022/04/08 06:26:03;;;;;;;10.70;6.78;;;;;;;13.10;45.53;98400.78;4957890;29;20527;-83
2022/04/08 06:28:30;;;;;;;10.32;6.65;;;;;;;13.28;45.61;98397.63;4938609;29;20055;-85
2022/04/08 06:30:57;;;;;;;12.02;6.53;;;;;;;13.38;45.08;98374.63;4955545;29;20054;-85
2022/04/08 06:33:24;;;;;;;11.10;6.50;;;;;;;13.55;44.61;98397.69;4938403;29;20110;-83
2022/04/08 06:35:51;;;;;;;10.57;6.50;;;;;;;13.48;44.84;98381.25;4956027;29;20109;-86
2022/04/08 06:38:18;;;;;;;8.93;6.60;;;;;;;13.37;44.31;98348.44;4957225;29;20054;-84
2022/04/08 06:40:45;;;;;;;12.52;6.60;;;;;;;13.62;44.18;98372.09;4939428;29;20436;-84
2022/04/08 06:43:12;;;;;;;12.20;6.68;;;;;;;13.63;44.05;98394.78;4956365;29;20075;-85
2022/04/08 06:45:40;;;;;;;11.98;6.63;;;;;;;13.35;44.18;98350.25;4955184;29;20142;-85
2022/04/08 06:48:07;;;;;;;11.95;6.35;;;;;;;13.44;44.46;98363.06;4938090;29;20047;-84
2022/04/08 06:50:35;;;;;;;10.82;6.80;;;;;;;13.64;44.03;98391.28;4922472;29;20059;-84
2022/04/08 06:53:03;;;;;;;14.80;7.15;;;;;;;13.70;44.06;98378.81;4921691;29;20059;-84
2022/04/08 06:55:30;;;;;;;13.63;7.18;;;;;;;13.82;44.27;98401.16;4956236;29;20043;-84
2022/04/08 06:58:02;;;;;;;13.65;6.95;;;;;;;13.87;44.00;98388.75;4956586;29;20055;-85
2022/04/08 07:00:32;;;;;;;10.77;6.65;;;;;;;13.79;43.71;98387.28;4963129;29;20071;-85
2022/04/08 07:02:59;;;;;;;11.82;7.55;;;;;;;13.79;44.35;98389.91;4946633;28;20055;-85
2022/04/08 07:05:28;;;;;;;12.23;6.95;;;;;;;13.75;43.78;98394.41;4969243;28;20054;-83
2022/04/08 07:07:56;;;;;;;11.97;7.13;;;;;;;13.73;43.95;98385.72;4936698;29;20067;-86
2022/04/08 07:10:24;;;;;;;11.32;6.95;;;;;;;13.90;43.41;98370.28;4918951;29;20299;-88
2022/04/08 07:12:51;;;;;;;11.55;7.68;;;;;;;13.88;42.83;98331.88;4935968;29;20059;-86
2022/04/08 07:15:18;;;;;;;13.95;7.10;;;;;;;14.08;42.38;98360.06;4935936;29;20067;-85
2022/04/08 07:17:46;;;;;;;13.73;7.32;;;;;;;14.23;42.61;98366.53;4934090;29;20132;-87
2022/04/08 07:20:16;;;;;;;12.52;8.13;;;;;;;14.06;42.61;98322.50;4924784;29;20086;-84
2022/04/08 07:22:45;;;;;;;14.57;7.97;;;;;;;14.51;42.13;98408.44;4956737;29;20502;-85
2022/04/08 07:25:12;;;;;;;12.75;6.93;;;;;;;14.35;41.94;98371.38;4938220;29;20469;-86
2022/04/08 07:27:48;;;;;;;13.57;7.43;;;;;;;14.36;41.88;98357.31;4937760;29;20432;-86
2022/04/08 07:30:18;;;;;;;16.88;7.70;;;;;;;14.72;41.33;98376.16;4937973;29;20070;-87
2022/04/08 07:32:51;;;;;;;;;;;;;;;14.93;42.22;98407.84;4956789;29;20165;-84
2022/04/08 07:35:25;;;;;;;11.02;7.53;;;;;;;14.85;40.99;98365.19;4957258;29;19927;-85
2022/04/08 07:37:53;;;;;;;12.73;7.47;;;;;;;14.94;40.05;98359.56;4945800;29;20051;-84
2022/04/08 07:40:21;;;;;;;11.75;7.80;;;;;;;15.17;40.18;98394.66;4926692;29;20425;-84
2022/04/08 07:42:48;;;;;;;16.42;7.72;;;;;;;15.32;40.46;98405.44;4942896;29;20082;-83
2022/04/08 07:45:17;;;;;;;13.98;7.53;;;;;;;15.19;39.98;98392.84;4925299;29;20409;-81
2022/04/08 07:47:44;;;;;;;17.25;8.48;;;;;;;14.91;40.32;98386.00;4959443;29;20055;-84
2022/04/08 07:50:13;;;;;;;11.55;8.18;;;;;;;14.84;40.41;98397.63;4942368;29;20062;-82
2022/04/08 07:52:41;;;;;;;14.80;8.60;;;;;;;14.91;40.07;98392.09;4960411;29;20051;-83
2022/04/08 07:55:09;;;;;;;13.43;8.75;;;;;;;14.98;40.18;98403.25;4964626;29;20055;-80
2022/04/08 07:57:49;;;;;;;15.38;9.52;;;;;;;15.10;39.86;98409.78;4945286;29;20061;-84
2022/04/08 08:00:21;;;;;;;15.52;8.55;;;;;;;14.94;39.77;98394.59;4941750;29;20469;-84
2022/04/08 08:02:49;;;;;;;14.90;8.43;;;;;;;15.24;39.15;98391.72;4958475;29;20482;-84
2022/04/08 08:05:18;;;;;;;18.42;9.70;;;;;;;15.05;39.07;98372.31;4940531;29;20513;-83
2022/04/08 08:07:54;;;;;;;17.85;9.18;;;;;;;15.19;39.22;98406.84;4957492;29;20153;-82
2022/04/08 08:10:32;;;;;;;16.17;9.68;;;;;;;15.31;38.94;98382.66;4940068;29;20426;-83
2022/04/08 08:13:00;;;;;;;17.67;9.85;;;;;;;15.53;39.75;98416.03;4940652;29;20058;-82
2022/04/08 08:15:28;;;;;;;17.35;9.48;;;;;;;15.57;39.75;98415.88;4957247;29;20524;-82
2022/04/08 08:17:57;;;;;;;15.13;10.27;;;;;;;15.33;39.51;98361.56;4957463;29;20110;-83
2022/04/08 08:20:25;;;;;;;14.93;9.70;;;;;;;15.36;39.59;98390.41;4939935;29;20059;-83
2022/04/08 08:22:53;;;;;;;18.70;9.75;;;;;;;15.32;39.51;98394.06;4956265;29;20075;-83
2022/04/08 08:25:21;;;;;;;16.13;9.85;;;;;;;15.32;39.85;98407.22;4924282;29;20059;-82
2022/04/08 08:27:53;;;;;;;15.73;10.55;;;;;;;15.56;39.58;98394.88;4956774;29;20047;-83
2022/04/08 08:30:21;;;;;;;15.48;10.23;;;;;;;15.57;39.23;98391.28;4957352;29;20059;-82
2022/04/08 08:32:50;;;;;;;16.92;10.20;;;;;;;15.55;39.43;98372.97;4957362;29;20071;-81
2022/04/08 08:35:19;;;;;;;16.17;9.83;;;;;;;15.67;39.43;98373.38;4941450;29;20146;-82
2022/04/08 08:37:47;;;;;;;16.55;10.43;;;;;;;15.76;38.91;98373.88;4942513;29;20091;-86
2022/04/08 08:40:16;;;;;;;17.02;10.10;;;;;;;15.83;38.92;98373.63;4923210;29;20051;-81
2022/04/08 08:42:44;;;;;;;17.70;11.07;;;;;;;15.84;39.04;98365.66;4939110;29;20435;-86
2022/04/08 08:45:13;;;;;;;15.32;10.13;;;;;;;15.74;39.10;98370.47;4921451;29;20102;-83
2022/04/08 08:47:40;;;;;;;20.02;10.38;;;;;;;15.75;39.38;98372.16;4937974;29;20146;-83
2022/04/08 08:50:08;;;;;;;17.83;10.70;;;;;;;15.65;39.70;98370.78;4937669;29;20539;-86
2022/04/08 08:52:35;;;;;;;14.30;9.48;;;;;;;15.66;39.56;98362.00;4921286;29;20067;-83
2022/04/08 08:55:05;;;;;;;16.30;10.10;;;;;;;15.66;39.29;98335.69;4937797;29;20417;-82
2022/04/08 08:57:32;;;;;;;17.60;10.40;;;;;;;15.36;38.88;98248.34;4936063;29;20078;-82
2022/04/08 09:00:22;;;;;;;16.30;10.43;;;;;;;16.13;38.89;98345.13;4937608;29;20561;-84
2022/04/08 09:02:50;;;;;;;15.38;9.88;;;;;;;16.29;37.73;98359.34;4936729;29;20497;-84
2022/04/08 09:05:25;;;;;;;14.57;9.77;;;;;;;15.96;38.05;98319.53;4936588;29;20062;-81
2022/04/08 09:07:54;;;;;;;18.77;10.23;;;;;;;16.06;38.48;98356.84;4936923;29;20056;-84
2022/04/08 09:10:34;;;;;;;15.60;9.85;;;;;;;15.90;38.63;98368.03;4936527;29;20155;-83
2022/04/08 09:13:05;;;;;;;16.63;9.65;;;;;;;15.51;38.69;98336.31;4936201;29;20470;-83
2022/04/08 09:15:38;;;;;;;17.20;9.75;;;;;;;15.63;38.55;98362.09;4937288;29;20056;-82
2022/04/08 09:18:13;;;;;;;15.65;9.82;;;;;;;15.24;38.44;98312.81;4937581;29;20478;-84
2022/04/08 09:20:44;;;;;;;17.60;10.15;;;;;;;15.39;39.25;98353.44;4921410;29;20063;-84
2022/04/08 09:23:13;;;;;;;16.02;9.68;;;;;;;15.39;39.14;98342.91;4941038;29;20062;-84
2022/04/08 09:25:41;;;;;;;17.38;9.93;;;;;;;15.17;39.11;98302.63;4920170;29;20044;-83
2022/04/08 09:28:09;;;;;;;17.02;10.27;;;;;;;15.47;39.27;98358.41;4938681;29;20138;-83
2022/04/08 09:30:36;;;;;;;18.13;10.13;;;;;;;15.49;38.71;98332.88;4939255;29;20055;-83
2022/04/08 09:33:13;;;;;;;17.67;9.43;;;;;;;15.76;38.39;98371.22;4940997;29;20047;-83
2022/04/08 09:35:41;;;;;;;17.42;10.32;;;;;;;15.73;38.07;98339.78;4957403;29;20039;-83
2022/04/08 09:38:11;;;;;;;21.55;9.30;;;;;;;15.68;37.58;98298.75;4944877;29;20036;-85
2022/04/08 09:40:40;;;;;;;18.30;9.52;;;;;;;15.89;37.14;98334.72;4940267;29;20059;-87
2022/04/08 09:43:08;;;;;;;17.95;8.98;;;;;;;16.13;37.46;98364.44;4938667;29;20051;-85
2022/04/08 09:45:38;;;;;;;16.55;9.05;;;;;;;15.77;36.72;98264.19;4940374;29;20486;-85
2022/04/08 09:48:06;;;;;;;;;;;;;;;15.88;37.93;98343.56;4906082;29;20532;-84
2022/04/08 09:50:36;;;;;;;16.73;8.73;;;;;;;15.73;37.26;98317.88;4937391;29;19933;-84
2022/04/08 09:53:04;;;;;;;14.77;8.75;;;;;;;15.87;37.00;98339.19;4936982;29;20066;-85
2022/04/08 09:55:31;;;;;;;11.48;7.75;;;;;;;15.77;37.02;98335.25;4937261;29;20051;-85
2022/04/08 09:58:03;;;;;;;11.30;7.70;;;;;;;15.61;37.15;98328.88;4921972;29;20071;-83
2022/04/08 10:00:32;;;;;;;15.85;8.43;;;;;;;15.41;37.41;98306.88;4922244;29;20054;-85
2022/04/08 10:02:59;;;;;;;14.10;8.40;;;;;;;15.23;37.23;98261.13;4937977;29;20047;-85
2022/04/08 10:05:27;;;;;;;16.67;8.05;;;;;;;15.65;37.02;98323.41;4920324;29;20083;-86
2022/04/08 10:07:56;;;;;;;11.10;7.75;;;;;;;15.40;37.04;98281.50;4920457;29;20146;-85
2022/04/08 10:10:42;;;;;;;14.32;8.30;;;;;;;15.87;36.94;98343.59;4908982;29;20056;-85
2022/04/08 10:13:55;;;;;;;17.13;8.27;;;;;;;15.82;37.06;98338.53;4943675;29;20052;-85
2022/04/08 10:16:23;;;;;;;14.68;8.63;;;;;;;15.63;36.84;98300.72;4895469;29;20078;-86
2022/04/08 10:18:52;;;;;;;15.63;8.85;;;;;;;15.73;37.11;98338.94;4904150;29;20044;-86
2022/04/08 10:21:19;;;;;;;15.47;8.87;;;;;;;15.49;37.49;98310.06;4936866;29;20058;-86
2022/04/08 10:23:53;;;;;;;13.60;8.63;;;;;;;15.45;37.55;98304.97;4904314;29;20056;-85
2022/04/08 10:26:23;;;;;;;15.68;9.20;;;;;;;15.65;37.89;98330.47;4936743;29;20111;-85
2022/04/08 10:28:51;;;;;;;16.02;8.68;;;;;;;15.56;37.90;98342.22;4919999;29;20052;-85
2022/04/08 10:31:23;;;;;;;15.10;8.23;;;;;;;15.20;38.44;98323.53;4936356;29;20068;-86
2022/04/08 10:33:50;;;;;;;13.00;7.80;;;;;;;15.32;38.86;98355.47;4920839;29;20066;-85
2022/04/08 10:36:17;;;;;;;12.57;7.50;;;;;;;15.15;39.30;98339.50;4937439;29;20087;-87
2022/04/08 10:38:44;;;;;;;13.00;7.80;;;;;;;15.17;39.59;98347.31;4905550;29;20403;-87
2022/04/08 10:41:12;;;;;;;10.90;8.13;;;;;;;15.41;39.82;98359.50;4938480;29;20056;-85
2022/04/08 10:43:43;;;;;;;13.43;8.00;;;;;;;15.56;39.60;98360.66;4922404;29;20071;-86
2022/04/08 10:46:11;;;;;;;16.75;8.18;;;;;;;15.76;39.35;98355.44;4940587;29;20059;-86
2022/04/08 10:48:38;;;;;;;17.40;7.72;;;;;;;15.97;39.30;98344.94;4923153;29;20055;-85
2022/04/08 10:51:18;;;;;;;13.25;6.85;;;;;;;15.79;39.97;98343.94;4941895;29;20059;-85
2022/04/08 10:53:45;;;;;;;11.88;7.35;;;;;;;15.70;40.73;98347.78;4925910;29;20078;-84
2022/04/08 10:56:14;;;;;;;13.32;7.25;;;;;;;15.56;41.07;98319.38;4934403;29;20051;-83
2022/04/08 10:58:48;;;;;;;16.00;8.07;;;;;;;15.71;41.37;98338.09;4938463;29;20087;-83
2022/04/08 11:01:24;;;;;;;11.80;7.55;;;;;;;15.66;41.39;98338.31;4920218;29;20056;-85
2022/04/08 11:03:57;;;;;;;14.68;8.43;;;;;;;15.47;42.38;98322.41;4931988;29;20513;-83
2022/04/08 11:06:26;;;;;;;14.23;8.70;;;;;;;15.21;42.80;98299.78;4949037;29;20056;-84
2022/04/08 11:08:54;;;;;;;14.77;8.52;;;;;;;15.33;43.11;98330.84;4946001;29;20066;-86
2022/04/08 11:11:29;;;;;;;11.75;8.75;;;;;;;15.29;43.55;98315.25;4920546;29;20055;-88
2022/04/08 11:13:58;;;;;;;13.27;9.00;;;;;;;15.20;43.59;98313.84;4919677;29;20060;-86
2022/04/08 11:16:32;;;;;;;15.57;7.72;;;;;;;15.12;43.97;98319.44;4889375;29;20060;-86
2022/04/08 11:19:00;;;;;;;15.00;8.77;;;;;;;14.63;44.64;98309.97;4938754;29;20051;-84
2022/04/08 11:21:28;;;;;;;17.10;8.73;;;;;;;14.83;45.10;98336.31;4941682;29;20055;-86
2022/04/08 11:24:01;;;;;;;13.15;8.23;;;;;;;14.91;44.98;98320.28;4911118;29;20048;-88
2022/04/08 11:26:30;;;;;;;14.05;7.53;;;;;;;14.98;44.55;98313.00;4925292;29;20094;-89
2022/04/08 11:29:12;;;;;;;13.48;7.50;;;;;;;14.80;44.56;98298.78;4907564;29;20128;-84
2022/04/08 11:31:39;;;;;;;13.82;7.32;;;;;;;14.84;44.70;98326.66;4924191;29;20521;-87
2022/04/08 11:34:07;;;;;;;14.05;8.07;;;;;;;14.88;44.83;98317.75;4949025;29;20070;-83